ETAR

Ramstein Air Base Airport

Ramstein, Germany
METAR ETAR 170556Z 23007KT 9999 OVC032 01/M01 A3015 RMK AO2A SLP225 60000 T00121015 10019 20008 52011 $
Observed Flight Rules
Dec-17 @ 05:56 UTC (25 minutes ago) Visual Flight Rules
Wind Visibility Clouds
230° at 7 knots 10,000+ meters
  • Overcast at 3,200' AGL
Temperatures Readings
Current 1°C / 34°F
Dewpoint -2°C / 28°F
Humidity 81%
Altimeter 30.15" Hg
Pressure 1022.5 hPa
Elevation 238
METAR ETAR 170556Z 23007KT 9999 OVC032 01/M01 A3015 RMK AO2A SLP225 60000 T00121015 10019 20008 52011 $
Observed Flight Rules
Dec-17 @ 05:56 UTC
(25 minutes ago)
VFR
Wind Visibility
230° at 7 knots 10,000+ meters
Clouds
  • Overcast at 3,200' AGL
Temperature Dewpoint
1°C / 34°F -2°C / 28°F
Humidity Altimeter Pressure
81% 30.15" Hg 1022.5 hPa